sensor_id;sensor_type;location;lat;lon;timestamp;pressure;altitude;pressure_sealevel;temperature;humidity
12594;BME280;6362;50.208;9.182;2023-09-18T00:00:22;99174.84;;;21.54;69.18
12594;BME280;6362;50.208;9.182;2023-09-18T00:02:48;99188.47;;;21.62;68.85
12594;BME280;6362;50.208;9.182;2023-09-18T00:05:13;99185.91;;;21.60;69.27
12594;BME280;6362;50.208;9.182;2023-09-18T00:07:42;99173.44;;;21.63;69.26
12594;BME280;6362;50.208;9.182;2023-09-18T00:10:10;99177.13;;;21.60;69.65
12594;BME280;6362;50.208;9.182;2023-09-18T00:12:35;99168.72;;;21.53;69.92
12594;BME280;6362;50.208;9.182;2023-09-18T00:15:01;99169.19;;;21.60;69.32
12594;BME280;6362;50.208;9.182;2023-09-18T00:17:26;99162.72;;;21.64;69.03
12594;BME280;6362;50.208;9.182;2023-09-18T00:19:52;99151.56;;;21.73;68.23
12594;BME280;6362;50.208;9.182;2023-09-18T00:22:18;99148.06;;;21.73;68.41
12594;BME280;6362;50.208;9.182;2023-09-18T00:24:43;99152.34;;;21.88;67.89
12594;BME280;6362;50.208;9.182;2023-09-18T00:27:09;99154.34;;;21.84;67.94
12594;BME280;6362;50.208;9.182;2023-09-18T00:29:36;99154.34;;;21.84;68.04
12594;BME280;6362;50.208;9.182;2023-09-18T00:32:02;99148.09;;;21.85;67.84
12594;BME280;6362;50.208;9.182;2023-09-18T00:34:29;99147.09;;;21.74;69.05
12594;BME280;6362;50.208;9.182;2023-09-18T00:36:54;99142.72;;;21.60;68.98
12594;BME280;6362;50.208;9.182;2023-09-18T00:39:20;99140.81;;;21.62;68.55
12594;BME280;6362;50.208;9.182;2023-09-18T00:41:45;99134.06;;;21.71;67.64
12594;BME280;6362;50.208;9.182;2023-09-18T00:44:14;99137.50;;;21.85;66.98
12594;BME280;6362;50.208;9.182;2023-09-18T00:46:40;99135.22;;;21.94;66.82
12594;BME280;6362;50.208;9.182;2023-09-18T00:49:06;99123.97;;;21.90;66.97
12594;BME280;6362;50.208;9.182;2023-09-18T00:51:32;99125.00;;;21.87;66.71
12594;BME280;6362;50.208;9.182;2023-09-18T00:53:58;99128.53;;;22.01;65.81
12594;BME280;6362;50.208;9.182;2023-09-18T00:56:24;99119.78;;;22.13;65.23
12594;BME280;6362;50.208;9.182;2023-09-18T00:58:50;99110.38;;;22.22;64.79
12594;BME280;6362;50.208;9.182;2023-09-18T01:01:18;99113.75;;;22.24;64.19
12594;BME280;6362;50.208;9.182;2023-09-18T01:03:49;99102.63;;;22.31;63.74
12594;BME280;6362;50.208;9.182;2023-09-18T01:06:15;99094.25;;;22.37;63.48
12594;BME280;6362;50.208;9.182;2023-09-18T01:08:40;99090.22;;;22.57;62.65
12594;BME280;6362;50.208;9.182;2023-09-18T01:11:34;99088.09;;;22.62;61.47
12594;BME280;6362;50.208;9.182;2023-09-18T01:16:47;99085.72;;;22.83;60.73
12594;BME280;6362;50.208;9.182;2023-09-18T01:19:16;99067.59;;;22.77;60.79
12594;BME280;6362;50.208;9.182;2023-09-18T01:21:41;99066.88;;;22.88;59.66
12594;BME280;6362;50.208;9.182;2023-09-18T01:24:07;99057.53;;;22.82;60.45
12594;BME280;6362;50.208;9.182;2023-09-18T01:26:32;99063.69;;;22.70;60.45
12594;BME280;6362;50.208;9.182;2023-09-18T01:28:57;99064.66;;;22.69;60.50
12594;BME280;6362;50.208;9.182;2023-09-18T01:31:23;99075.44;;;22.79;60.32
12594;BME280;6362;50.208;9.182;2023-09-18T01:33:48;99075.69;;;22.63;61.16
12594;BME280;6362;50.208;9.182;2023-09-18T01:36:16;99082.34;;;22.69;60.73
12594;BME280;6362;50.208;9.182;2023-09-18T01:38:42;99079.72;;;22.56;61.56
12594;BME280;6362;50.208;9.182;2023-09-18T01:41:08;99073.59;;;22.55;61.14
12594;BME280;6362;50.208;9.182;2023-09-18T01:43:34;99057.44;;;22.71;60.24
12594;BME280;6362;50.208;9.182;2023-09-18T01:46:00;99055.22;;;22.65;60.46
12594;BME280;6362;50.208;9.182;2023-09-18T01:48:26;99052.28;;;22.57;60.80
12594;BME280;6362;50.208;9.182;2023-09-18T01:50:51;99052.59;;;22.52;60.75
12594;BME280;6362;50.208;9.182;2023-09-18T01:53:17;99048.44;;;22.48;61.17
12594;BME280;6362;50.208;9.182;2023-09-18T01:55:42;99039.50;;;22.38;61.61
12594;BME280;6362;50.208;9.182;2023-09-18T01:58:07;99035.88;;;22.26;62.66
12594;BME280;6362;50.208;9.182;2023-09-18T02:00:34;99039.03;;;22.31;61.64
12594;BME280;6362;50.208;9.182;2023-09-18T02:03:00;99033.00;;;22.29;61.42
12594;BME280;6362;50.208;9.182;2023-09-18T02:05:25;99039.91;;;22.19;62.48
12594;BME280;6362;50.208;9.182;2023-09-18T02:07:50;99040.13;;;22.16;62.13
12594;BME280;6362;50.208;9.182;2023-09-18T02:10:16;99043.50;;;22.05;64.27
12594;BME280;6362;50.208;9.182;2023-09-18T02:12:41;99044.97;;;21.97;64.54
12594;BME280;6362;50.208;9.182;2023-09-18T02:15:07;99035.53;;;21.80;65.42
12594;BME280;6362;50.208;9.182;2023-09-18T02:17:35;99028.06;;;21.59;66.58
12594;BME280;6362;50.208;9.182;2023-09-18T02:20:01;99020.47;;;21.55;67.18
12594;BME280;6362;50.208;9.182;2023-09-18T02:22:32;99033.75;;;21.41;68.09
12594;BME280;6362;50.208;9.182;2023-09-18T02:24:57;99021.44;;;21.27;68.83
12594;BME280;6362;50.208;9.182;2023-09-18T02:27:23;99009.75;;;21.17;69.64
12594;BME280;6362;50.208;9.182;2023-09-18T02:29:49;99009.09;;;21.13;69.99
12594;BME280;6362;50.208;9.182;2023-09-18T02:32:15;99006.00;;;21.06;70.47
12594;BME280;6362;50.208;9.182;2023-09-18T02:34:41;99003.78;;;21.00;71.16
12594;BME280;6362;50.208;9.182;2023-09-18T02:37:06;99013.06;;;20.93;71.12
12594;BME280;6362;50.208;9.182;2023-09-18T02:39:32;99026.28;;;20.93;71.04
12594;BME280;6362;50.208;9.182;2023-09-18T02:41:58;99079.44;;;20.89;71.32
12594;BME280;6362;50.208;9.182;2023-09-18T02:44:23;99153.34;;;21.04;70.25
12594;BME280;6362;50.208;9.182;2023-09-18T02:46:49;99201.16;;;21.28;69.37
12594;BME280;6362;50.208;9.182;2023-09-18T02:49:14;99203.75;;;21.30;71.23
12594;BME280;6362;50.208;9.182;2023-09-18T02:51:40;99224.41;;;21.09;74.27
12594;BME280;6362;50.208;9.182;2023-09-18T02:54:05;99244.66;;;21.10;75.60
12594;BME280;6362;50.208;9.182;2023-09-18T02:56:31;99247.53;;;20.91;77.61
12594;BME280;6362;50.208;9.182;2023-09-18T02:58:56;99248.78;;;20.71;79.00
12594;BME280;6362;50.208;9.182;2023-09-18T03:01:21;99236.28;;;20.59;81.36
12594;BME280;6362;50.208;9.182;2023-09-18T03:06:28;99248.53;;;20.30;84.23
12594;BME280;6362;50.208;9.182;2023-09-18T03:08:54;99253.00;;;20.14;86.46
12594;BME280;6362;50.208;9.182;2023-09-18T03:11:20;99244.66;;;20.21;85.38
12594;BME280;6362;50.208;9.182;2023-09-18T03:13:46;99224.19;;;19.95;87.42
12594;BME280;6362;50.208;9.182;2023-09-18T03:16:12;99190.38;;;19.86;89.08
12594;BME280;6362;50.208;9.182;2023-09-18T03:18:37;99173.31;;;19.77;90.93
12594;BME280;6362;50.208;9.182;2023-09-18T03:21:03;99169.31;;;19.70;93.46
12594;BME280;6362;50.208;9.182;2023-09-18T03:23:29;99157.56;;;19.60;94.54
12594;BME280;6362;50.208;9.182;2023-09-18T03:25:55;99151.75;;;19.53;96.71
12594;BME280;6362;50.208;9.182;2023-09-18T03:28:20;99129.47;;;19.43;99.21
12594;BME280;6362;50.208;9.182;2023-09-18T03:30:46;99115.03;;;19.34;99.56
12594;BME280;6362;50.208;9.182;2023-09-18T03:33:11;99100.59;;;19.25;100.00
12594;BME280;6362;50.208;9.182;2023-09-18T03:38:13;99088.53;;;19.06;100.00
12594;BME280;6362;50.208;9.182;2023-09-18T03:40:38;99089.88;;;18.97;100.00
12594;BME280;6362;50.208;9.182;2023-09-18T03:43:04;99087.44;;;18.94;100.00
12594;BME280;6362;50.208;9.182;2023-09-18T03:45:29;99078.94;;;18.89;100.00
12594;BME280;6362;50.208;9.182;2023-09-18T03:47:54;99075.50;;;18.87;100.00
12594;BME280;6362;50.208;9.182;2023-09-18T03:50:20;99068.47;;;18.87;100.00
12594;BME280;6362;50.208;9.182;2023-09-18T03:52:46;99056.81;;;18.76;100.00
12594;BME280;6362;50.208;9.182;2023-09-18T03:55:11;99052.50;;;18.75;100.00
12594;BME280;6362;50.208;9.182;2023-09-18T03:57:39;99043.97;;;18.69;100.00
12594;BME280;6362;50.208;9.182;2023-09-18T04:00:05;99031.38;;;18.59;100.00
12594;BME280;6362;50.208;9.182;2023-09-18T04:02:32;99031.47;;;18.57;100.00
12594;BME280;6362;50.208;9.182;2023-09-18T04:04:58;99018.53;;;18.53;100.00
12594;BME280;6362;50.208;9.182;2023-09-18T04:07:23;99009.63;;;18.55;100.00
12594;BME280;6362;50.208;9.182;2023-09-18T04:09:49;99013.47;;;18.50;100.00
12594;BME280;6362;50.208;9.182;2023-09-18T04:12:14;99010.22;;;18.44;100.00
12594;BME280;6362;50.208;9.182;2023-09-18T04:14:40;99010.63;;;18.37;100.00
12594;BME280;6362;50.208;9.182;2023-09-18T04:17:06;99029.06;;;18.37;100.00
12594;BME280;6362;50.208;9.182;2023-09-18T04:19:31;99027.00;;;18.26;100.00
12594;BME280;6362;50.208;9.182;2023-09-18T04:21:57;99020.97;;;18.24;100.00
12594;BME280;6362;50.208;9.182;2023-09-18T04:24:23;99015.94;;;18.19;100.00
12594;BME280;6362;50.208;9.182;2023-09-18T04:26:49;99006.25;;;18.20;100.00
12594;BME280;6362;50.208;9.182;2023-09-18T04:29:18;99012.13;;;18.25;100.00
12594;BME280;6362;50.208;9.182;2023-09-18T04:31:44;99023.94;;;18.18;100.00
12594;BME280;6362;50.208;9.182;2023-09-18T04:34:10;99027.41;;;18.18;100.00
12594;BME280;6362;50.208;9.182;2023-09-18T04:36:35;99030.81;;;18.20;100.00
12594;BME280;6362;50.208;9.182;2023-09-18T04:39:03;99039.31;;;18.26;100.00
12594;BME280;6362;50.208;9.182;2023-09-18T04:41:30;99049.34;;;18.35;100.00
12594;BME280;6362;50.208;9.182;2023-09-18T04:43:55;99053.69;;;18.36;100.00
12594;BME280;6362;50.208;9.182;2023-09-18T04:46:21;99057.09;;;18.38;100.00
12594;BME280;6362;50.208;9.182;2023-09-18T04:48:46;99052.84;;;18.35;100.00
12594;BME280;6362;50.208;9.182;2023-09-18T04:51:12;99055.22;;;18.40;100.00
12594;BME280;6362;50.208;9.182;2023-09-18T04:53:38;99061.09;;;18.45;100.00
12594;BME280;6362;50.208;9.182;2023-09-18T04:56:03;99066.38;;;18.45;100.00
12594;BME280;6362;50.208;9.182;2023-09-18T04:58:29;99069.75;;;18.47;100.00
12594;BME280;6362;50.208;9.182;2023-09-18T05:00:56;99076.81;;;18.46;100.00
12594;BME280;6362;50.208;9.182;2023-09-18T05:03:22;99082.31;;;18.42;100.00
12594;BME280;6362;50.208;9.182;2023-09-18T05:05:48;99072.81;;;18.39;100.00
12594;BME280;6362;50.208;9.182;2023-09-18T05:08:13;99079.69;;;18.42;100.00
12594;BME280;6362;50.208;9.182;2023-09-18T05:10:39;99064.50;;;18.47;100.00
12594;BME280;6362;50.208;9.182;2023-09-18T05:13:04;99047.59;;;18.51;100.00
12594;BME280;6362;50.208;9.182;2023-09-18T05:15:30;99044.78;;;18.54;100.00
12594;BME280;6362;50.208;9.182;2023-09-18T05:17:57;99034.59;;;18.64;100.00
12594;BME280;6362;50.208;9.182;2023-09-18T05:20:27;99024.97;;;18.80;100.00
12594;BME280;6362;50.208;9.182;2023-09-18T05:22:54;99014.06;;;18.86;100.00
12594;BME280;6362;50.208;9.182;2023-09-18T05:25:26;98994.44;;;18.92;100.00
12594;BME280;6362;50.208;9.182;2023-09-18T05:27:53;98983.97;;;19.06;100.00
12594;BME280;6362;50.208;9.182;2023-09-18T05:30:27;98999.06;;;19.18;97.58
12594;BME280;6362;50.208;9.182;2023-09-18T05:32:54;98996.50;;;19.33;96.16
12594;BME280;6362;50.208;9.182;2023-09-18T05:35:20;98998.66;;;19.40;94.93
12594;BME280;6362;50.208;9.182;2023-09-18T05:37:46;99005.09;;;19.50;93.79
12594;BME280;6362;50.208;9.182;2023-09-18T05:40:13;99005.53;;;19.59;92.37
12594;BME280;6362;50.208;9.182;2023-09-18T05:42:42;98999.31;;;19.60;92.60
12594;BME280;6362;50.208;9.182;2023-09-18T05:45:09;99012.41;;;19.61;92.50
12594;BME280;6362;50.208;9.182;2023-09-18T05:47:35;99016.66;;;19.64;92.75
12594;BME280;6362;50.208;9.182;2023-09-18T05:50:02;99025.34;;;19.80;91.46
12594;BME280;6362;50.208;9.182;2023-09-18T05:52:29;99019.81;;;19.85;92.12
12594;BME280;6362;50.208;9.182;2023-09-18T05:54:54;99024.25;;;19.84;91.52
12594;BME280;6362;50.208;9.182;2023-09-18T05:57:19;99010.97;;;20.00;87.79
12594;BME280;6362;50.208;9.182;2023-09-18T05:59:45;99021.16;;;20.06;88.08
12594;BME280;6362;50.208;9.182;2023-09-18T06:02:11;99022.81;;;19.93;90.28
12594;BME280;6362;50.208;9.182;2023-09-18T06:04:36;99046.88;;;19.88;91.00
12594;BME280;6362;50.208;9.182;2023-09-18T06:07:05;99059.97;;;19.90;91.58
12594;BME280;6362;50.208;9.182;2023-09-18T06:09:31;99040.66;;;19.89;92.26
12594;BME280;6362;50.208;9.182;2023-09-18T06:11:56;99032.47;;;19.94;92.44
12594;BME280;6362;50.208;9.182;2023-09-18T06:14:22;99051.56;;;19.97;93.05
12594;BME280;6362;50.208;9.182;2023-09-18T06:16:47;99063.56;;;20.03;92.46
12594;BME280;6362;50.208;9.182;2023-09-18T06:19:13;99073.56;;;20.12;90.07
12594;BME280;6362;50.208;9.182;2023-09-18T06:21:39;99075.16;;;20.15;88.81
12594;BME280;6362;50.208;9.182;2023-09-18T06:24:05;99076.69;;;20.19;88.16
12594;BME280;6362;50.208;9.182;2023-09-18T06:26:31;99086.50;;;20.17;88.04
12594;BME280;6362;50.208;9.182;2023-09-18T06:28:56;99095.00;;;20.22;87.21
12594;BME280;6362;50.208;9.182;2023-09-18T06:31:22;99101.19;;;20.21;87.96
12594;BME280;6362;50.208;9.182;2023-09-18T06:33:48;99089.06;;;20.33;85.83
12594;BME280;6362;50.208;9.182;2023-09-18T06:36:14;99083.38;;;20.24;87.56
12594;BME280;6362;50.208;9.182;2023-09-18T06:38:39;99082.72;;;20.21;86.50
12594;BME280;6362;50.208;9.182;2023-09-18T06:41:05;99086.41;;;20.18;87.16
12594;BME280;6362;50.208;9.182;2023-09-18T06:43:30;99085.19;;;20.24;88.80
12594;BME280;6362;50.208;9.182;2023-09-18T06:45:55;99085.06;;;20.25;84.68
12594;BME280;6362;50.208;9.182;2023-09-18T06:48:23;99090.03;;;20.46;83.50
12594;BME280;6362;50.208;9.182;2023-09-18T06:50:49;99087.28;;;20.47;82.86
12594;BME280;6362;50.208;9.182;2023-09-18T06:53:14;99078.13;;;20.53;82.58
12594;BME280;6362;50.208;9.182;2023-09-18T06:55:40;99080.22;;;20.62;80.07
12594;BME280;6362;50.208;9.182;2023-09-18T06:58:05;99076.69;;;20.76;79.89
12594;BME280;6362;50.208;9.182;2023-09-18T07:00:31;99062.16;;;20.83;81.49
12594;BME280;6362;50.208;9.182;2023-09-18T07:02:56;99045.63;;;20.94;79.96
12594;BME280;6362;50.208;9.182;2023-09-18T07:05:22;99050.69;;;20.97;79.22
12594;BME280;6362;50.208;9.182;2023-09-18T07:07:48;99074.66;;;21.08;80.13
12594;BME280;6362;50.208;9.182;2023-09-18T07:10:13;99081.72;;;21.22;78.27
12594;BME280;6362;50.208;9.182;2023-09-18T07:12:38;99084.59;;;21.31;78.17
12594;BME280;6362;50.208;9.182;2023-09-18T07:15:05;99092.91;;;21.40;77.50
12594;BME280;6362;50.208;9.182;2023-09-18T07:17:31;99099.50;;;21.47;76.58
12594;BME280;6362;50.208;9.182;2023-09-18T07:19:57;99095.03;;;21.47;76.53
12594;BME280;6362;50.208;9.182;2023-09-18T07:22:22;99108.72;;;21.54;76.22
12594;BME280;6362;50.208;9.182;2023-09-18T07:24:48;99112.41;;;21.51;75.96
12594;BME280;6362;50.208;9.182;2023-09-18T07:27:14;99111.56;;;21.51;76.03
12594;BME280;6362;50.208;9.182;2023-09-18T07:29:40;99109.22;;;21.46;75.67
12594;BME280;6362;50.208;9.182;2023-09-18T07:32:05;99124.91;;;21.49;75.78
12594;BME280;6362;50.208;9.182;2023-09-18T07:34:30;99123.81;;;21.39;75.24
12594;BME280;6362;50.208;9.182;2023-09-18T07:36:56;99120.31;;;21.39;75.42
12594;BME280;6362;50.208;9.182;2023-09-18T07:39:22;99121.72;;;21.44;75.13
12594;BME280;6362;50.208;9.182;2023-09-18T07:41:47;99120.47;;;21.50;75.08
12594;BME280;6362;50.208;9.182;2023-09-18T07:44:20;99121.06;;;21.41;74.18
12594;BME280;6362;50.208;9.182;2023-09-18T07:46:46;99122.00;;;21.40;74.09
12594;BME280;6362;50.208;9.182;2023-09-18T07:49:11;99114.06;;;21.40;73.55
12594;BME280;6362;50.208;9.182;2023-09-18T07:51:37;99114.91;;;21.26;73.31
12594;BME280;6362;50.208;9.182;2023-09-18T07:54:03;99117.31;;;21.30;73.21
12594;BME280;6362;50.208;9.182;2023-09-18T07:56:28;99121.75;;;21.30;73.56
12594;BME280;6362;50.208;9.182;2023-09-18T07:58:58;99127.88;;;21.30;72.93
12594;BME280;6362;50.208;9.182;2023-09-18T08:01:24;99124.53;;;21.41;71.96
12594;BME280;6362;50.208;9.182;2023-09-18T08:03:49;99135.41;;;21.37;73.78
12594;BME280;6362;50.208;9.182;2023-09-18T08:06:15;99132.38;;;21.43;72.66
12594;BME280;6362;50.208;9.182;2023-09-18T08:08:41;99140.88;;;21.48;72.91
12594;BME280;6362;50.208;9.182;2023-09-18T08:11:07;99147.31;;;21.44;72.54
12594;BME280;6362;50.208;9.182;2023-09-18T08:13:36;99148.34;;;21.41;73.54
12594;BME280;6362;50.208;9.182;2023-09-18T08:16:05;99155.56;;;21.39;73.96
12594;BME280;6362;50.208;9.182;2023-09-18T08:18:31;99163.94;;;21.46;74.12
12594;BME280;6362;50.208;9.182;2023-09-18T08:20:57;99152.22;;;21.50;74.76
12594;BME280;6362;50.208;9.182;2023-09-18T08:23:24;99151.25;;;21.51;74.49
12594;BME280;6362;50.208;9.182;2023-09-18T08:25:50;99166.69;;;21.44;75.47
12594;BME280;6362;50.208;9.182;2023-09-18T08:28:17;99156.09;;;21.44;74.59
12594;BME280;6362;50.208;9.182;2023-09-18T08:30:42;99164.91;;;21.45;75.59
12594;BME280;6362;50.208;9.182;2023-09-18T08:33:13;99165.00;;;21.43;75.35
12594;BME280;6362;50.208;9.182;2023-09-18T08:35:38;99165.06;;;21.42;75.72
12594;BME280;6362;50.208;9.182;2023-09-18T08:38:05;99165.28;;;21.39;76.28
12594;BME280;6362;50.208;9.182;2023-09-18T08:40:30;99161.28;;;21.46;76.40
12594;BME280;6362;50.208;9.182;2023-09-18T08:42:56;99158.47;;;21.49;75.07
12594;BME280;6362;50.208;9.182;2023-09-18T08:45:38;99152.97;;;21.52;75.79
12594;BME280;6362;50.208;9.182;2023-09-18T08:48:06;99156.50;;;21.65;74.69
12594;BME280;6362;50.208;9.182;2023-09-18T08:50:32;99155.00;;;21.61;73.82
12594;BME280;6362;50.208;9.182;2023-09-18T08:52:59;99144.97;;;21.66;73.63
12594;BME280;6362;50.208;9.182;2023-09-18T08:55:25;99157.50;;;21.77;72.81
12594;BME280;6362;50.208;9.182;2023-09-18T08:57:51;99149.34;;;21.80;73.77
12594;BME280;6362;50.208;9.182;2023-09-18T09:00:18;99135.91;;;21.83;72.35
12594;BME280;6362;50.208;9.182;2023-09-18T09:02:46;99141.34;;;21.94;71.55
12594;BME280;6362;50.208;9.182;2023-09-18T09:05:14;99133.16;;;22.11;70.33
12594;BME280;6362;50.208;9.182;2023-09-18T09:07:39;99123.50;;;22.23;69.41
12594;BME280;6362;50.208;9.182;2023-09-18T09:10:05;99129.78;;;22.22;69.32
12594;BME280;6362;50.208;9.182;2023-09-18T09:12:56;99117.97;;;22.26;70.25
12594;BME280;6362;50.208;9.182;2023-09-18T09:15:32;99127.13;;;22.22;69.87
12594;BME280;6362;50.208;9.182;2023-09-18T09:18:07;99121.94;;;22.33;69.83
12594;BME280;6362;50.208;9.182;2023-09-18T09:20:34;99121.09;;;22.33;68.99
12594;BME280;6362;50.208;9.182;2023-09-18T09:23:05;99111.34;;;22.33;69.96
12594;BME280;6362;50.208;9.182;2023-09-18T09:25:33;99118.31;;;22.34;68.86
12594;BME280;6362;50.208;9.182;2023-09-18T09:28:01;99108.25;;;22.39;68.98
12594;BME280;6362;50.208;9.182;2023-09-18T09:30:29;99107.09;;;22.44;69.38
12594;BME280;6362;50.208;9.182;2023-09-18T09:32:57;99097.22;;;22.46;68.44
12594;BME280;6362;50.208;9.182;2023-09-18T09:35:27;99102.84;;;22.41;69.19
12594;BME280;6362;50.208;9.182;2023-09-18T09:37:57;99113.03;;;22.34;69.64
12594;BME280;6362;50.208;9.182;2023-09-18T09:40:25;99138.56;;;22.23;69.69
12594;BME280;6362;50.208;9.182;2023-09-18T09:42:55;99133.25;;;22.10;70.13
12594;BME280;6362;50.208;9.182;2023-09-18T09:45:26;99141.34;;;22.07;70.55
12594;BME280;6362;50.208;9.182;2023-09-18T09:47:53;99143.28;;;22.05;70.50
12594;BME280;6362;50.208;9.182;2023-09-18T09:50:19;99137.66;;;22.09;69.78
12594;BME280;6362;50.208;9.182;2023-09-18T09:52:47;99132.84;;;22.16;70.31
12594;BME280;6362;50.208;9.182;2023-09-18T09:55:31;99130.91;;;22.18;69.89
12594;BME280;6362;50.208;9.182;2023-09-18T09:58:05;99137.19;;;22.17;69.41
12594;BME280;6362;50.208;9.182;2023-09-18T10:00:49;99143.31;;;22.18;69.44
12594;BME280;6362;50.208;9.182;2023-09-18T10:03:18;99154.09;;;22.14;69.33
12594;BME280;6362;50.208;9.182;2023-09-18T10:05:46;99161.03;;;22.03;69.43
12594;BME280;6362;50.208;9.182;2023-09-18T10:08:16;99166.56;;;22.00;69.70
12594;BME280;6362;50.208;9.182;2023-09-18T10:11:05;99169.66;;;22.06;69.91
12594;BME280;6362;50.208;9.182;2023-09-18T10:16:23;99169.63;;;21.94;69.34
12594;BME280;6362;50.208;9.182;2023-09-18T10:19:17;99161.97;;;21.89;69.69
12594;BME280;6362;50.208;9.182;2023-09-18T10:24:33;99170.63;;;21.78;70.41
12594;BME280;6362;50.208;9.182;2023-09-18T10:27:01;99167.94;;;21.66;70.73
12594;BME280;6362;50.208;9.182;2023-09-18T10:29:30;99190.03;;;21.65;72.11
12594;BME280;6362;50.208;9.182;2023-09-18T10:31:58;99201.47;;;21.65;71.69
12594;BME280;6362;50.208;9.182;2023-09-18T10:34:24;99203.03;;;21.55;72.31
12594;BME280;6362;50.208;9.182;2023-09-18T10:36:52;99202.97;;;21.42;72.79
12594;BME280;6362;50.208;9.182;2023-09-18T10:39:18;99197.38;;;21.47;72.17
12594;BME280;6362;50.208;9.182;2023-09-18T10:41:53;99201.25;;;21.41;72.46
12594;BME280;6362;50.208;9.182;2023-09-18T10:44:19;99199.19;;;21.32;73.08
12594;BME280;6362;50.208;9.182;2023-09-18T10:46:46;99191.25;;;21.32;73.24
12594;BME280;6362;50.208;9.182;2023-09-18T10:49:12;99190.97;;;21.22;73.71
12594;BME280;6362;50.208;9.182;2023-09-18T10:51:38;99182.66;;;21.28;73.55
12594;BME280;6362;50.208;9.182;2023-09-18T10:54:11;99184.44;;;21.28;74.00
12594;BME280;6362;50.208;9.182;2023-09-18T10:56:40;99190.56;;;21.43;73.29
12594;BME280;6362;50.208;9.182;2023-09-18T10:59:07;99175.25;;;21.48;72.74
12594;BME280;6362;50.208;9.182;2023-09-18T11:01:34;99182.00;;;21.39;73.17
12594;BME280;6362;50.208;9.182;2023-09-18T11:04:03;99165.63;;;21.47;73.49
12594;BME280;6362;50.208;9.182;2023-09-18T11:06:29;99157.69;;;21.47;73.34
12594;BME280;6362;50.208;9.182;2023-09-18T11:09:08;99162.50;;;21.54;73.09
12594;BME280;6362;50.208;9.182;2023-09-18T11:11:34;99178.47;;;21.53;72.32
12594;BME280;6362;50.208;9.182;2023-09-18T11:14:00;99192.53;;;21.53;73.11
12594;BME280;6362;50.208;9.182;2023-09-18T11:19:12;99186.25;;;21.42;72.87
12594;BME280;6362;50.208;9.182;2023-09-18T11:21:41;99177.47;;;21.41;73.04
12594;BME280;6362;50.208;9.182;2023-09-18T11:26:42;99170.34;;;21.56;72.42
12594;BME280;6362;50.208;9.182;2023-09-18T11:29:21;99177.88;;;21.62;71.99
12594;BME280;6362;50.208;9.182;2023-09-18T11:34:19;99195.50;;;21.49;72.91
12594;BME280;6362;50.208;9.182;2023-09-18T11:36:46;99187.09;;;21.69;72.15
12594;BME280;6362;50.208;9.182;2023-09-18T11:39:12;99174.81;;;21.68;72.05
12594;BME280;6362;50.208;9.182;2023-09-18T11:41:38;99184.72;;;21.79;71.60
12594;BME280;6362;50.208;9.182;2023-09-18T11:46:53;99185.25;;;21.84;71.47
12594;BME280;6362;50.208;9.182;2023-09-18T11:49:24;99172.88;;;21.84;71.02
12594;BME280;6362;50.208;9.182;2023-09-18T11:51:53;99168.41;;;21.85;71.08
12594;BME280;6362;50.208;9.182;2023-09-18T11:54:19;99166.06;;;21.80;71.56
12594;BME280;6362;50.208;9.182;2023-09-18T11:56:46;99167.56;;;21.84;71.63
12594;BME280;6362;50.208;9.182;2023-09-18T11:59:12;99171.50;;;21.92;71.57
12594;BME280;6362;50.208;9.182;2023-09-18T12:01:38;99166.75;;;21.97;70.86
12594;BME280;6362;50.208;9.182;2023-09-18T12:04:05;99170.47;;;21.94;71.69
12594;BME280;6362;50.208;9.182;2023-09-18T12:06:43;99157.97;;;21.96;71.12
12594;BME280;6362;50.208;9.182;2023-09-18T12:09:08;99150.88;;;21.97;71.08
12594;BME280;6362;50.208;9.182;2023-09-18T12:11:34;99156.38;;;21.94;71.68
12594;BME280;6362;50.208;9.182;2023-09-18T12:14:01;99166.03;;;21.95;71.03
12594;BME280;6362;50.208;9.182;2023-09-18T12:16:27;99168.81;;;22.06;71.40
12594;BME280;6362;50.208;9.182;2023-09-18T12:18:53;99175.75;;;21.94;72.44
12594;BME280;6362;50.208;9.182;2023-09-18T12:21:18;99187.81;;;22.12;71.68
12594;BME280;6362;50.208;9.182;2023-09-18T12:23:45;99177.78;;;22.03;71.33
12594;BME280;6362;50.208;9.182;2023-09-18T12:26:15;99176.19;;;22.01;70.46
12594;BME280;6362;50.208;9.182;2023-09-18T12:28:42;99175.69;;;22.08;70.71
12594;BME280;6362;50.208;9.182;2023-09-18T12:31:13;99184.63;;;22.20;70.50
12594;BME280;6362;50.208;9.182;2023-09-18T12:33:39;99188.13;;;22.21;70.54
12594;BME280;6362;50.208;9.182;2023-09-18T12:36:06;99187.50;;;22.30;69.92
12594;BME280;6362;50.208;9.182;2023-09-18T12:38:33;99177.13;;;22.27;70.10
12594;BME280;6362;50.208;9.182;2023-09-18T12:41:01;99178.78;;;22.15;70.30
12594;BME280;6362;50.208;9.182;2023-09-18T12:43:38;99186.34;;;22.21;70.15
12594;BME280;6362;50.208;9.182;2023-09-18T12:46:05;99181.56;;;22.13;70.25
12594;BME280;6362;50.208;9.182;2023-09-18T12:48:31;99179.97;;;22.24;70.29
12594;BME280;6362;50.208;9.182;2023-09-18T12:51:06;99176.25;;;22.26;70.82
12594;BME280;6362;50.208;9.182;2023-09-18T12:53:32;99193.88;;;22.27;69.93
12594;BME280;6362;50.208;9.182;2023-09-18T12:56:09;99186.34;;;22.34;69.69
12594;BME280;6362;50.208;9.182;2023-09-18T12:58:35;99195.47;;;22.30;69.84
12594;BME280;6362;50.208;9.182;2023-09-18T13:01:07;99207.75;;;22.31;69.88
12594;BME280;6362;50.208;9.182;2023-09-18T13:03:54;99187.84;;;22.38;69.96
12594;BME280;6362;50.208;9.182;2023-09-18T13:06:20;99181.50;;;22.40;69.57
12594;BME280;6362;50.208;9.182;2023-09-18T13:08:46;99175.22;;;22.42;70.25
12594;BME280;6362;50.208;9.182;2023-09-18T13:11:12;99174.91;;;22.59;69.89
12594;BME280;6362;50.208;9.182;2023-09-18T13:13:40;99164.44;;;22.57;69.74
12594;BME280;6362;50.208;9.182;2023-09-18T13:16:10;99174.84;;;22.60;68.90
12594;BME280;6362;50.208;9.182;2023-09-18T13:18:36;99174.28;;;22.68;67.86
12594;BME280;6362;50.208;9.182;2023-09-18T13:21:12;99166.53;;;22.65;69.49
12594;BME280;6362;50.208;9.182;2023-09-18T13:23:38;99155.41;;;22.73;68.37
12594;BME280;6362;50.208;9.182;2023-09-18T13:26:04;99160.28;;;22.79;68.66
12594;BME280;6362;50.208;9.182;2023-09-18T13:28:30;99149.69;;;22.79;68.22
12594;BME280;6362;50.208;9.182;2023-09-18T13:30:58;99161.69;;;22.72;68.75
12594;BME280;6362;50.208;9.182;2023-09-18T13:33:25;99153.63;;;22.60;69.61